sensor_id;sensor_type;location;lat;lon;timestamp;pressure;altitude;pressure_sealevel;temperature;humidity
71621;BME280;59471;42.254;23.102;2023-05-10T00:01:57;96084.13;;;10.25;95.42
71621;BME280;59471;42.254;23.102;2023-05-10T00:04:23;96085.75;;;10.34;96.50
71621;BME280;59471;42.254;23.102;2023-05-10T00:06:52;96080.13;;;10.46;95.73
71621;BME280;59471;42.254;23.102;2023-05-10T00:09:18;96081.78;;;10.47;95.36
71621;BME280;59471;42.254;23.102;2023-05-10T00:11:44;96073.53;;;10.50;95.97
71621;BME280;59471;42.254;23.102;2023-05-10T00:14:10;96061.44;;;10.01;96.37
71621;BME280;59471;42.254;23.102;2023-05-10T00:16:36;96072.38;;;10.05;97.17
71621;BME280;59471;42.254;23.102;2023-05-10T00:19:01;96052.91;;;10.15;95.76
71621;BME280;59471;42.254;23.102;2023-05-10T00:21:27;96068.72;;;10.30;92.12
71621;BME280;59471;42.254;23.102;2023-05-10T00:23:53;96072.09;;;10.47;91.38
71621;BME280;59471;42.254;23.102;2023-05-10T00:26:19;96060.84;;;10.38;88.87
71621;BME280;59471;42.254;23.102;2023-05-10T00:28:45;96061.59;;;10.08;90.08
71621;BME280;59471;42.254;23.102;2023-05-10T00:31:11;96059.69;;;9.85;91.92
71621;BME280;59471;42.254;23.102;2023-05-10T00:33:36;96058.03;;;9.92;90.67
71621;BME280;59471;42.254;23.102;2023-05-10T00:36:02;96061.16;;;9.80;90.76
71621;BME280;59471;42.254;23.102;2023-05-10T00:38:28;96055.94;;;9.88;88.61
71621;BME280;59471;42.254;23.102;2023-05-10T00:40:53;96062.50;;;9.75;90.00
71621;BME280;59471;42.254;23.102;2023-05-10T00:43:19;96060.38;;;9.71;89.40
71621;BME280;59471;42.254;23.102;2023-05-10T00:45:45;96064.31;;;9.59;89.25
71621;BME280;59471;42.254;23.102;2023-05-10T00:48:11;96063.00;;;9.63;89.93
71621;BME280;59471;42.254;23.102;2023-05-10T00:50:37;96068.22;;;9.63;89.45
71621;BME280;59471;42.254;23.102;2023-05-10T00:53:03;96061.72;;;9.59;90.11
71621;BME280;59471;42.254;23.102;2023-05-10T00:55:28;96059.88;;;9.67;88.26
71621;BME280;59471;42.254;23.102;2023-05-10T00:57:55;96057.16;;;9.52;89.00
71621;BME280;59471;42.254;23.102;2023-05-10T01:00:21;96063.34;;;9.43;88.95
71621;BME280;59471;42.254;23.102;2023-05-10T01:02:47;96057.81;;;9.30;90.17
71621;BME280;59471;42.254;23.102;2023-05-10T01:05:13;96060.72;;;9.35;89.62
71621;BME280;59471;42.254;23.102;2023-05-10T01:07:39;96057.13;;;9.36;90.55
71621;BME280;59471;42.254;23.102;2023-05-10T01:10:06;96057.81;;;9.30;90.36
71621;BME280;59471;42.254;23.102;2023-05-10T01:12:34;96056.16;;;9.45;89.93
71621;BME280;59471;42.254;23.102;2023-05-10T01:15:02;96055.50;;;9.51;89.91
71621;BME280;59471;42.254;23.102;2023-05-10T01:17:28;96062.72;;;9.33;90.32
71621;BME280;59471;42.254;23.102;2023-05-10T01:19:54;96057.81;;;9.46;89.34
71621;BME280;59471;42.254;23.102;2023-05-10T01:33:52;96051.91;;;9.44;87.39
71621;BME280;59471;42.254;23.102;2023-05-10T01:41:54;96043.41;;;9.42;88.27
71621;BME280;59471;42.254;23.102;2023-05-10T01:44:38;96042.41;;;9.60;86.85
71621;BME280;59471;42.254;23.102;2023-05-10T01:47:15;96045.69;;;9.45;88.31
71621;BME280;59471;42.254;23.102;2023-05-10T01:49:49;96034.41;;;9.45;87.34
71621;BME280;59471;42.254;23.102;2023-05-10T01:52:18;96039.16;;;9.49;86.46
71621;BME280;59471;42.254;23.102;2023-05-10T01:54:51;96044.75;;;9.22;87.23
71621;BME280;59471;42.254;23.102;2023-05-10T01:57:21;96038.38;;;9.08;88.17
71621;BME280;59471;42.254;23.102;2023-05-10T01:59:50;96027.94;;;9.08;87.49
71621;BME280;59471;42.254;23.102;2023-05-10T02:02:19;96040.66;;;9.11;88.60
71621;BME280;59471;42.254;23.102;2023-05-10T02:04:49;96038.19;;;9.10;88.47
71621;BME280;59471;42.254;23.102;2023-05-10T02:07:16;96043.09;;;9.04;87.95
71621;BME280;59471;42.254;23.102;2023-05-10T02:09:44;96041.13;;;8.98;88.07
71621;BME280;59471;42.254;23.102;2023-05-10T02:12:13;96042.47;;;9.02;89.24
71621;BME280;59471;42.254;23.102;2023-05-10T02:14:41;96048.66;;;9.10;88.87
71621;BME280;59471;42.254;23.102;2023-05-10T02:17:08;96035.91;;;9.07;87.70
71621;BME280;59471;42.254;23.102;2023-05-10T02:19:36;96038.66;;;8.89;89.22
71621;BME280;59471;42.254;23.102;2023-05-10T02:22:04;96034.28;;;8.89;88.73
71621;BME280;59471;42.254;23.102;2023-05-10T02:24:32;96037.88;;;8.96;87.56
71621;BME280;59471;42.254;23.102;2023-05-10T02:27:00;96043.56;;;8.92;87.68
71621;BME280;59471;42.254;23.102;2023-05-10T02:29:28;96047.00;;;8.84;87.98
71621;BME280;59471;42.254;23.102;2023-05-10T02:31:55;96040.47;;;8.80;87.90
71621;BME280;59471;42.254;23.102;2023-05-10T02:34:21;96040.47;;;8.80;87.89
71621;BME280;59471;42.254;23.102;2023-05-10T02:36:50;96047.31;;;8.81;87.66
71621;BME280;59471;42.254;23.102;2023-05-10T02:39:18;96052.88;;;8.78;88.82
71621;BME280;59471;42.254;23.102;2023-05-10T02:41:46;96049.28;;;8.79;87.83
71621;BME280;59471;42.254;23.102;2023-05-10T02:44:14;96053.34;;;8.81;87.15
71621;BME280;59471;42.254;23.102;2023-05-10T02:46:41;96041.25;;;8.56;88.20
71621;BME280;59471;42.254;23.102;2023-05-10T02:49:06;96044.66;;;8.56;88.05
71621;BME280;59471;42.254;23.102;2023-05-10T02:51:35;96053.72;;;8.36;88.11
71621;BME280;59471;42.254;23.102;2023-05-10T02:54:20;96052.50;;;8.56;88.04
71621;BME280;59471;42.254;23.102;2023-05-10T02:56:51;96055.91;;;8.57;88.42
71621;BME280;59471;42.254;23.102;2023-05-10T02:59:20;96053.16;;;8.58;87.60
71621;BME280;59471;42.254;23.102;2023-05-10T03:01:45;96048.50;;;8.36;88.14
71621;BME280;59471;42.254;23.102;2023-05-10T03:04:11;96045.94;;;8.44;88.08
71621;BME280;59471;42.254;23.102;2023-05-10T03:06:37;96042.56;;;8.26;87.60
71621;BME280;59471;42.254;23.102;2023-05-10T03:09:03;96052.06;;;8.27;88.66
71621;BME280;59471;42.254;23.102;2023-05-10T03:17:28;96055.09;;;8.14;88.30
71621;BME280;59471;42.254;23.102;2023-05-10T03:19:58;96053.00;;;8.18;88.11
71621;BME280;59471;42.254;23.102;2023-05-10T03:22:37;96054.63;;;8.19;88.62
71621;BME280;59471;42.254;23.102;2023-05-10T03:25:07;96056.97;;;8.30;89.01
71621;BME280;59471;42.254;23.102;2023-05-10T03:27:36;96047.16;;;8.32;88.00
71621;BME280;59471;42.254;23.102;2023-05-10T03:30:05;96052.31;;;8.16;87.84
71621;BME280;59471;42.254;23.102;2023-05-10T03:32:33;96056.28;;;8.28;88.52
71621;BME280;59471;42.254;23.102;2023-05-10T03:34:59;96055.31;;;8.29;87.41
71621;BME280;59471;42.254;23.102;2023-05-10T03:37:25;96054.97;;;8.24;86.90
71621;BME280;59471;42.254;23.102;2023-05-10T03:39:51;96061.81;;;8.25;87.57
71621;BME280;59471;42.254;23.102;2023-05-10T03:42:16;96059.09;;;8.00;87.27
71621;BME280;59471;42.254;23.102;2023-05-10T03:44:43;96061.44;;;8.11;87.73
71621;BME280;59471;42.254;23.102;2023-05-10T03:47:08;96060.16;;;8.16;86.95
71621;BME280;59471;42.254;23.102;2023-05-10T03:49:34;96062.75;;;8.16;86.61
71621;BME280;59471;42.254;23.102;2023-05-10T03:51:59;96055.78;;;8.24;87.06
71621;BME280;59471;42.254;23.102;2023-05-10T03:54:25;96054.91;;;8.07;85.72
71621;BME280;59471;42.254;23.102;2023-05-10T03:56:50;96059.94;;;8.01;86.66
71621;BME280;59471;42.254;23.102;2023-05-10T03:59:16;96057.97;;;8.03;87.91
71621;BME280;59471;42.254;23.102;2023-05-10T04:01:41;96061.09;;;8.06;86.35
71621;BME280;59471;42.254;23.102;2023-05-10T04:04:07;96061.09;;;8.06;86.54
71621;BME280;59471;42.254;23.102;2023-05-10T04:06:32;96070.56;;;8.07;86.76
71621;BME280;59471;42.254;23.102;2023-05-10T04:08:58;96065.72;;;8.21;86.49
71621;BME280;59471;42.254;23.102;2023-05-10T04:11:29;96069.53;;;8.00;85.89
71621;BME280;59471;42.254;23.102;2023-05-10T04:13:54;96073.50;;;8.12;86.27
71621;BME280;59471;42.254;23.102;2023-05-10T04:16:20;96065.59;;;7.96;86.13
71621;BME280;59471;42.254;23.102;2023-05-10T04:18:45;96077.72;;;8.05;86.24
71621;BME280;59471;42.254;23.102;2023-05-10T04:21:12;96069.84;;;7.97;86.58
71621;BME280;59471;42.254;23.102;2023-05-10T04:23:38;96081.75;;;7.92;86.70
71621;BME280;59471;42.254;23.102;2023-05-10T04:26:04;96077.34;;;7.92;85.67
71621;BME280;59471;42.254;23.102;2023-05-10T04:28:29;96080.59;;;7.94;87.09
71621;BME280;59471;42.254;23.102;2023-05-10T04:31:09;96071.09;;;7.85;86.82
71621;BME280;59471;42.254;23.102;2023-05-10T04:33:35;96081.53;;;7.85;86.30
71621;BME280;59471;42.254;23.102;2023-05-10T04:36:02;96082.06;;;7.97;85.51
71621;BME280;59471;42.254;23.102;2023-05-10T04:38:28;96074.06;;;7.90;85.31
71621;BME280;59471;42.254;23.102;2023-05-10T04:40:54;96076.53;;;8.00;86.01
71621;BME280;59471;42.254;23.102;2023-05-10T04:43:20;96086.34;;;8.06;85.87
71621;BME280;59471;42.254;23.102;2023-05-10T04:45:45;96082.88;;;7.97;85.73
71621;BME280;59471;42.254;23.102;2023-05-10T04:48:11;96080.94;;;7.99;85.43
71621;BME280;59471;42.254;23.102;2023-05-10T04:50:37;96081.94;;;8.06;85.35
71621;BME280;59471;42.254;23.102;2023-05-10T04:53:03;96087.75;;;7.92;86.59
71621;BME280;59471;42.254;23.102;2023-05-10T04:55:28;96072.44;;;7.89;86.85
71621;BME280;59471;42.254;23.102;2023-05-10T04:57:54;96082.25;;;8.03;87.66
71621;BME280;59471;42.254;23.102;2023-05-10T05:00:22;96079.34;;;8.06;87.06
71621;BME280;59471;42.254;23.102;2023-05-10T05:02:48;96081.94;;;7.98;87.54
71621;BME280;59471;42.254;23.102;2023-05-10T05:05:13;96075.84;;;7.89;88.19
71621;BME280;59471;42.254;23.102;2023-05-10T05:07:39;96083.91;;;8.04;86.92
71621;BME280;59471;42.254;23.102;2023-05-10T05:10:06;96086.91;;;8.18;86.85
71621;BME280;59471;42.254;23.102;2023-05-10T05:12:33;96089.97;;;8.13;87.02
71621;BME280;59471;42.254;23.102;2023-05-10T05:14:58;96085.91;;;8.10;85.70
71621;BME280;59471;42.254;23.102;2023-05-10T05:17:24;96086.47;;;8.30;84.70
71621;BME280;59471;42.254;23.102;2023-05-10T05:19:49;96086.78;;;8.27;85.13
71621;BME280;59471;42.254;23.102;2023-05-10T05:22:15;96094.75;;;8.26;85.12
71621;BME280;59471;42.254;23.102;2023-05-10T05:24:41;96098.03;;;8.20;85.89
71621;BME280;59471;42.254;23.102;2023-05-10T05:27:06;96096.38;;;8.19;85.21
71621;BME280;59471;42.254;23.102;2023-05-10T05:29:32;96095.78;;;8.33;85.56
71621;BME280;59471;42.254;23.102;2023-05-10T05:31:57;96102.63;;;8.34;84.51
71621;BME280;59471;42.254;23.102;2023-05-10T05:34:23;96105.63;;;8.39;85.43
71621;BME280;59471;42.254;23.102;2023-05-10T05:36:49;96099.44;;;8.40;85.61
71621;BME280;59471;42.254;23.102;2023-05-10T05:39:15;96102.31;;;8.37;85.14
71621;BME280;59471;42.254;23.102;2023-05-10T05:41:41;96105.34;;;8.50;84.91
71621;BME280;59471;42.254;23.102;2023-05-10T05:44:07;96104.81;;;8.39;84.78
71621;BME280;59471;42.254;23.102;2023-05-10T05:46:33;96114.41;;;8.38;84.18
71621;BME280;59471;42.254;23.102;2023-05-10T05:48:58;96105.63;;;8.39;86.54
71621;BME280;59471;42.254;23.102;2023-05-10T05:51:24;96110.84;;;8.39;84.32
71621;BME280;59471;42.254;23.102;2023-05-10T05:53:50;96107.25;;;8.40;84.05
71621;BME280;59471;42.254;23.102;2023-05-10T05:56:15;96107.25;;;8.40;85.25
71621;BME280;59471;42.254;23.102;2023-05-10T05:58:42;96108.75;;;8.51;84.13
71621;BME280;59471;42.254;23.102;2023-05-10T06:01:08;96110.09;;;8.29;84.83
71621;BME280;59471;42.254;23.102;2023-05-10T06:03:34;96115.84;;;8.32;84.98
71621;BME280;59471;42.254;23.102;2023-05-10T06:05:59;96113.47;;;8.39;85.24
71621;BME280;59471;42.254;23.102;2023-05-10T06:08:25;96105.91;;;8.36;85.60
71621;BME280;59471;42.254;23.102;2023-05-10T06:10:50;96108.34;;;8.29;84.20
71621;BME280;59471;42.254;23.102;2023-05-10T06:13:16;96107.53;;;8.37;84.41
71621;BME280;59471;42.254;23.102;2023-05-10T06:15:42;96112.72;;;8.29;84.73
71621;BME280;59471;42.254;23.102;2023-05-10T06:18:07;96112.16;;;8.43;85.11
71621;BME280;59471;42.254;23.102;2023-05-10T06:20:33;96116.75;;;8.49;83.86
71621;BME280;59471;42.254;23.102;2023-05-10T06:22:58;96125.75;;;8.55;83.53
71621;BME280;59471;42.254;23.102;2023-05-10T06:25:24;96124.28;;;8.61;83.73
71621;BME280;59471;42.254;23.102;2023-05-10T06:27:50;96128.72;;;8.68;84.62
71621;BME280;59471;42.254;23.102;2023-05-10T06:30:16;96126.63;;;8.72;84.51
71621;BME280;59471;42.254;23.102;2023-05-10T06:32:41;96124.34;;;8.77;83.53
71621;BME280;59471;42.254;23.102;2023-05-10T06:35:09;96125.19;;;8.77;83.22
71621;BME280;59471;42.254;23.102;2023-05-10T06:37:34;96135.81;;;8.92;84.34
71621;BME280;59471;42.254;23.102;2023-05-10T06:40:00;96129.94;;;8.98;83.04
71621;BME280;59471;42.254;23.102;2023-05-10T06:42:27;96131.78;;;9.14;83.14
71621;BME280;59471;42.254;23.102;2023-05-10T06:44:52;96141.91;;;9.09;83.65
71621;BME280;59471;42.254;23.102;2023-05-10T06:47:18;96131.97;;;9.21;81.10
71621;BME280;59471;42.254;23.102;2023-05-10T06:49:43;96125.56;;;9.07;82.51
71621;BME280;59471;42.254;23.102;2023-05-10T06:52:09;96122.16;;;9.15;82.65
71621;BME280;59471;42.254;23.102;2023-05-10T06:54:34;96136.72;;;9.34;82.70
71621;BME280;59471;42.254;23.102;2023-05-10T06:57:00;96137.53;;;9.34;80.25
71621;BME280;59471;42.254;23.102;2023-05-10T06:59:26;96133.09;;;9.35;81.59
71621;BME280;59471;42.254;23.102;2023-05-10T07:01:51;96138.19;;;9.44;81.26
71621;BME280;59471;42.254;23.102;2023-05-10T07:04:17;96131.31;;;9.43;80.00
71621;BME280;59471;42.254;23.102;2023-05-10T07:06:42;96130.34;;;9.44;80.70
71621;BME280;59471;42.254;23.102;2023-05-10T07:09:08;96136.06;;;9.40;80.38
71621;BME280;59471;42.254;23.102;2023-05-10T07:11:34;96139.97;;;9.44;80.41
71621;BME280;59471;42.254;23.102;2023-05-10T07:14:00;96138.50;;;9.49;79.92
71621;BME280;59471;42.254;23.102;2023-05-10T07:16:26;96134.59;;;9.62;81.71
71621;BME280;59471;42.254;23.102;2023-05-10T07:18:51;96133.91;;;9.76;80.09
71621;BME280;59471;42.254;23.102;2023-05-10T07:21:18;96140.94;;;9.67;79.15
71621;BME280;59471;42.254;23.102;2023-05-10T07:23:43;96139.97;;;9.85;78.24
71621;BME280;59471;42.254;23.102;2023-05-10T07:26:09;96137.81;;;10.05;80.38
71621;BME280;59471;42.254;23.102;2023-05-10T07:28:35;96137.84;;;9.96;77.56
71621;BME280;59471;42.254;23.102;2023-05-10T07:31:02;96137.31;;;10.09;78.15
71621;BME280;59471;42.254;23.102;2023-05-10T07:33:28;96146.59;;;10.20;78.56
71621;BME280;59471;42.254;23.102;2023-05-10T07:35:54;96143.66;;;10.23;77.39
71621;BME280;59471;42.254;23.102;2023-05-10T07:38:19;96147.25;;;10.38;75.34
71621;BME280;59471;42.254;23.102;2023-05-10T07:40:45;96145.94;;;10.18;76.14
71621;BME280;59471;42.254;23.102;2023-05-10T07:43:10;96149.06;;;10.30;75.93
71621;BME280;59471;42.254;23.102;2023-05-10T07:45:36;96156.75;;;10.31;76.02
71621;BME280;59471;42.254;23.102;2023-05-10T07:48:02;96143.69;;;10.07;76.67
71621;BME280;59471;42.254;23.102;2023-05-10T07:50:27;96151.88;;;10.28;76.95
71621;BME280;59471;42.254;23.102;2023-05-10T07:52:53;96151.50;;;10.15;76.93
71621;BME280;59471;42.254;23.102;2023-05-10T07:55:18;96154.31;;;10.30;75.53
71621;BME280;59471;42.254;23.102;2023-05-10T07:57:46;96150.66;;;10.47;76.92
71621;BME280;59471;42.254;23.102;2023-05-10T08:00:17;96152.44;;;10.55;77.16
71621;BME280;59471;42.254;23.102;2023-05-10T08:02:44;96155.28;;;10.76;75.29
71621;BME280;59471;42.254;23.102;2023-05-10T08:05:09;96161.22;;;10.70;76.01
71621;BME280;59471;42.254;23.102;2023-05-10T08:07:35;96168.66;;;10.50;76.07
71621;BME280;59471;42.254;23.102;2023-05-10T08:10:02;96164.09;;;10.36;76.53
71621;BME280;59471;42.254;23.102;2023-05-10T08:12:28;96166.91;;;10.34;75.38
71621;BME280;59471;42.254;23.102;2023-05-10T08:14:54;96171.16;;;10.35;75.00
71621;BME280;59471;42.254;23.102;2023-05-10T08:17:19;96170.63;;;10.40;75.05
71621;BME280;59471;42.254;23.102;2023-05-10T08:19:45;96168.06;;;10.15;73.95
71621;BME280;59471;42.254;23.102;2023-05-10T08:22:10;96166.41;;;10.31;76.37
71621;BME280;59471;42.254;23.102;2023-05-10T08:24:36;96171.47;;;10.40;75.32
71621;BME280;59471;42.254;23.102;2023-05-10T08:27:05;96174.03;;;10.49;76.29
71621;BME280;59471;42.254;23.102;2023-05-10T08:29:30;96172.44;;;10.39;75.73
71621;BME280;59471;42.254;23.102;2023-05-10T08:31:56;96172.97;;;10.18;76.11
71621;BME280;59471;42.254;23.102;2023-05-10T08:34:21;96179.00;;;10.35;75.99
71621;BME280;59471;42.254;23.102;2023-05-10T08:36:47;96168.88;;;10.16;76.23
71621;BME280;59471;42.254;23.102;2023-05-10T08:39:12;96179.66;;;10.13;76.15
71621;BME280;59471;42.254;23.102;2023-05-10T08:41:39;96166.56;;;10.29;75.87
71621;BME280;59471;42.254;23.102;2023-05-10T08:44:07;96174.06;;;10.24;75.50
71621;BME280;59471;42.254;23.102;2023-05-10T08:46:33;96174.91;;;10.16;75.82
71621;BME280;59471;42.254;23.102;2023-05-10T08:49:02;96178.69;;;10.14;75.94
71621;BME280;59471;42.254;23.102;2023-05-10T08:51:31;96186.03;;;10.27;75.87
71621;BME280;59471;42.254;23.102;2023-05-10T08:54:02;96181.97;;;10.16;76.88
71621;BME280;59471;42.254;23.102;2023-05-10T08:56:29;96185.22;;;10.18;76.54
71621;BME280;59471;42.254;23.102;2023-05-10T08:58:57;96191.13;;;10.28;77.06
71621;BME280;59471;42.254;23.102;2023-05-10T09:01:23;96185.19;;;10.42;75.44
71621;BME280;59471;42.254;23.102;2023-05-10T09:03:50;96183.91;;;10.38;76.78
71621;BME280;59471;42.254;23.102;2023-05-10T09:06:15;96187.47;;;10.54;76.57
71621;BME280;59471;42.254;23.102;2023-05-10T09:08:42;96184.13;;;10.68;75.59
71621;BME280;59471;42.254;23.102;2023-05-10T09:11:09;96190.56;;;10.49;75.09
71621;BME280;59471;42.254;23.102;2023-05-10T09:13:35;96189.75;;;10.49;75.46
71621;BME280;59471;42.254;23.102;2023-05-10T09:16:03;96183.97;;;10.70;76.40
71621;BME280;59471;42.254;23.102;2023-05-10T09:18:29;96178.88;;;10.68;74.83
71621;BME280;59471;42.254;23.102;2023-05-10T09:20:54;96177.16;;;10.92;75.39
71621;BME280;59471;42.254;23.102;2023-05-10T09:23:20;96182.44;;;10.83;76.09
71621;BME280;59471;42.254;23.102;2023-05-10T09:25:45;96180.81;;;10.82;73.75
71621;BME280;59471;42.254;23.102;2023-05-10T09:28:11;96169.53;;;10.82;75.23
71621;BME280;59471;42.254;23.102;2023-05-10T09:30:37;96178.13;;;10.90;74.73
71621;BME280;59471;42.254;23.102;2023-05-10T09:33:03;96178.56;;;10.71;74.81
71621;BME280;59471;42.254;23.102;2023-05-10T09:35:31;96169.75;;;10.56;74.85
71621;BME280;59471;42.254;23.102;2023-05-10T09:38:00;96175.34;;;10.53;76.00
71621;BME280;59471;42.254;23.102;2023-05-10T09:40:28;96168.13;;;10.55;75.18
71621;BME280;59471;42.254;23.102;2023-05-10T09:42:59;96166.84;;;10.51;75.80
71621;BME280;59471;42.254;23.102;2023-05-10T09:45:30;96169.41;;;10.59;75.35
71621;BME280;59471;42.254;23.102;2023-05-10T09:47:58;96167.81;;;10.58;74.46
71621;BME280;59471;42.254;23.102;2023-05-10T09:50:27;96164.19;;;10.59;75.64
71621;BME280;59471;42.254;23.102;2023-05-10T09:52:54;96158.06;;;10.75;76.01
71621;BME280;59471;42.254;23.102;2023-05-10T09:55:24;96161.53;;;10.67;75.47
71621;BME280;59471;42.254;23.102;2023-05-10T09:58:07;96148.00;;;10.55;75.73
71621;BME280;59471;42.254;23.102;2023-05-10T10:00:45;96155.38;;;10.60;75.73
71621;BME280;59471;42.254;23.102;2023-05-10T10:03:19;96154.94;;;10.79;75.69
71621;BME280;59471;42.254;23.102;2023-05-10T10:05:47;96143.09;;;10.92;74.21
71621;BME280;59471;42.254;23.102;2023-05-10T10:08:14;96146.31;;;11.02;75.74
71621;BME280;59471;42.254;23.102;2023-05-10T10:10:40;96144.25;;;11.20;75.14
71621;BME280;59471;42.254;23.102;2023-05-10T10:13:06;96139.53;;;11.39;74.43
71621;BME280;59471;42.254;23.102;2023-05-10T10:15:34;96151.00;;;11.37;74.19
71621;BME280;59471;42.254;23.102;2023-05-10T10:18:01;96132.66;;;11.37;74.52
71621;BME280;59471;42.254;23.102;2023-05-10T10:20:28;96147.81;;;11.73;73.32
71621;BME280;59471;42.254;23.102;2023-05-10T10:22:54;96142.44;;;11.90;73.93
71621;BME280;59471;42.254;23.102;2023-05-10T10:25:21;96150.00;;;12.08;74.29
71621;BME280;59471;42.254;23.102;2023-05-10T10:30:45;96141.75;;;12.25;72.38
71621;BME280;59471;42.254;23.102;2023-05-10T10:36:20;96135.59;;;12.48;71.67
71621;BME280;59471;42.254;23.102;2023-05-10T10:41:27;96139.41;;;12.60;70.10
71621;BME280;59471;42.254;23.102;2023-05-10T10:55:12;96144.84;;;12.44;69.32
71621;BME280;59471;42.254;23.102;2023-05-10T10:57:53;96150.09;;;12.44;68.85
71621;BME280;59471;42.254;23.102;2023-05-10T11:00:31;96147.91;;;12.62;70.54
71621;BME280;59471;42.254;23.102;2023-05-10T11:03:08;96142.22;;;12.59;68.52
71621;BME280;59471;42.254;23.102;2023-05-10T11:05:42;96139.28;;;12.83;69.97
71621;BME280;59471;42.254;23.102;2023-05-10T11:13:28;96136.41;;;12.63;68.21
71621;BME280;59471;42.254;23.102;2023-05-10T11:15:55;96141.31;;;12.51;68.27
71621;BME280;59471;42.254;23.102;2023-05-10T11:18:26;96146.28;;;12.61;68.00
71621;BME280;59471;42.254;23.102;2023-05-10T11:21:01;96137.59;;;12.46;69.45
71621;BME280;59471;42.254;23.102;2023-05-10T11:26:12;96147.75;;;12.49;70.44
71621;BME280;59471;42.254;23.102;2023-05-10T11:28:45;96146.38;;;12.23;69.19
71621;BME280;59471;42.254;23.102;2023-05-10T11:31:16;96151.72;;;12.15;70.68
71621;BME280;59471;42.254;23.102;2023-05-10T11:33:47;96142.34;;;11.98;71.59
71621;BME280;59471;42.254;23.102;2023-05-10T11:36:15;96145.72;;;11.92;71.17
71621;BME280;59471;42.254;23.102;2023-05-10T11:38:45;96143.69;;;11.94;70.93
71621;BME280;59471;42.254;23.102;2023-05-10T11:41:12;96144.84;;;12.14;71.82
71621;BME280;59471;42.254;23.102;2023-05-10T11:43:41;96135.78;;;12.32;70.07
71621;BME280;59471;42.254;23.102;2023-05-10T11:46:10;96143.00;;;12.00;71.19
71621;BME280;59471;42.254;23.102;2023-05-10T11:48:38;96134.13;;;12.01;70.85
71621;BME280;59471;42.254;23.102;2023-05-10T11:51:04;96139.38;;;12.01;71.73
71621;BME280;59471;42.254;23.102;2023-05-10T11:53:32;96127.97;;;12.09;72.07
71621;BME280;59471;42.254;23.102;2023-05-10T11:56:09;96136.84;;;11.93;70.77
71621;BME280;59471;42.254;23.102;2023-05-10T11:58:36;96133.94;;;12.02;71.61
71621;BME280;59471;42.254;23.102;2023-05-10T12:01:04;96136.38;;;12.04;71.52
71621;BME280;59471;42.254;23.102;2023-05-10T12:03:31;96136.25;;;11.82;72.00
71621;BME280;59471;42.254;23.102;2023-05-10T12:05:58;96131.94;;;11.90;71.61
71621;BME280;59471;42.254;23.102;2023-05-10T12:08:26;96125.75;;;11.82;72.00
71621;BME280;59471;42.254;23.102;2023-05-10T12:11:09;96126.00;;;11.73;72.46
71621;BME280;59471;42.254;23.102;2023-05-10T12:13:42;96125.25;;;11.79;72.17
71621;BME280;59471;42.254;23.102;2023-05-10T12:16:18;96125.06;;;11.89;72.15
71621;BME280;59471;42.254;23.102;2023-05-10T12:18:50;96127.38;;;11.83;71.98
71621;BME280;59471;42.254;23.102;2023-05-10T12:21:16;96128.72;;;11.79;71.79
71621;BME280;59471;42.254;23.102;2023-05-10T12:23:45;96126.22;;;11.86;71.63
71621;BME280;59471;42.254;23.102;2023-05-10T12:26:15;96124.25;;;11.65;72.73
71621;BME280;59471;42.254;23.102;2023-05-10T12:28:41;96125.25;;;11.64;72.46
71621;BME280;59471;42.254;23.102;2023-05-10T12:31:07;96118.28;;;11.71;72.53
71621;BME280;59471;42.254;23.102;2023-05-10T12:33:43;96111.78;;;11.67;72.05
71621;BME280;59471;42.254;23.102;2023-05-10T12:36:11;96112.13;;;11.64;71.81
71621;BME280;59471;42.254;23.102;2023-05-10T12:38:39;96101.44;;;11.51;72.89
71621;BME280;59471;42.254;23.102;2023-05-10T12:41:12;96106.53;;;11.67;72.76
71621;BME280;59471;42.254;23.102;2023-05-10T12:43:41;96092.59;;;11.44;72.66
71621;BME280;59471;42.254;23.102;2023-05-10T12:46:08;96093.16;;;11.39;73.07
71621;BME280;59471;42.254;23.102;2023-05-10T12:48:36;96100.81;;;11.41;72.76
71621;BME280;59471;42.254;23.102;2023-05-10T12:51:03;96099.00;;;11.41;72.47
71621;BME280;59471;42.254;23.102;2023-05-10T12:53:29;96095.31;;;11.35;73.65
71621;BME280;59471;42.254;23.102;2023-05-10T12:55:55;96099.91;;;11.33;73.53
71621;BME280;59471;42.254;23.102;2023-05-10T12:58:21;96096.53;;;11.48;73.19
71621;BME280;59471;42.254;23.102;2023-05-10T13:00:46;96089.38;;;11.42;73.46
71621;BME280;59471;42.254;23.102;2023-05-10T13:03:12;96087.47;;;11.50;72.31
71621;BME280;59471;42.254;23.102;2023-05-10T13:05:38;96094.19;;;11.53;72.29
71621;BME280;59471;42.254;23.102;2023-05-10T13:08:04;96089.06;;;11.36;72.76
71621;BME280;59471;42.254;23.102;2023-05-10T13:10:30;96080.56;;;11.34;73.59
71621;BME280;59471;42.254;23.102;2023-05-10T13:12:57;96084.47;;;11.39;72.92
71621;BME280;59471;42.254;23.102;2023-05-10T13:15:26;96072.28;;;11.46;73.20
71621;BME280;59471;42.254;23.102;2023-05-10T13:17:53;96067.28;;;11.36;72.89
71621;BME280;59471;42.254;23.102;2023-05-10T13:20:18;96067.44;;;11.34;73.49
71621;BME280;59471;42.254;23.102;2023-05-10T13:22:44;96061.94;;;11.29;72.32
71621;BME280;59471;42.254;23.102;2023-05-10T13:25:10;96068.66;;;11.47;72.43
71621;BME280;59471;42.254;23.102;2023-05-10T13:27:37;96062.19;;;11.34;73.22
71621;BME280;59471;42.254;23.102;2023-05-10T13:30:04;96067.03;;;11.46;72.39
71621;BME280;59471;42.254;23.102;2023-05-10T13:32:31;96074.84;;;11.54;71.87
71621;BME280;59471;42.254;23.102;2023-05-10T13:34:56;96067.09;;;11.37;72.04
71621;BME280;59471;42.254;23.102;2023-05-10T13:37:22;96064.72;;;11.51;72.15
71621;BME280;59471;42.254;23.102;2023-05-10T13:39:48;96064.31;;;11.39;73.31
71621;BME280;59471;42.254;23.102;2023-05-10T13:42:13;96061.69;;;11.39;71.24
71621;BME280;59471;42.254;23.102;2023-05-10T13:44:39;96054.88;;;11.30;73.09
71621;BME280;59471;42.254;23.102;2023-05-10T13:47:05;96059.66;;;11.26;72.37